createdAt,value
2023-05-06T00:01:30.040Z,6.53
2023-05-06T00:03:58.011Z,6.65
2023-05-06T00:06:27.453Z,7.35
2023-05-06T00:08:55.048Z,6.00
2023-05-06T00:11:22.670Z,6.57
2023-05-06T00:13:50.310Z,6.57
2023-05-06T00:16:18.004Z,6.68
2023-05-06T00:18:47.073Z,7.72
2023-05-06T00:21:14.667Z,7.60
2023-05-06T00:23:44.067Z,8.15
2023-05-06T00:26:12.156Z,7.97
2023-05-06T00:28:39.701Z,9.02
2023-05-06T00:31:10.226Z,7.63
2023-05-06T00:37:53.074Z,7.40
2023-05-06T00:40:47.166Z,7.50
2023-05-06T00:43:15.595Z,6.80
2023-05-06T00:45:43.265Z,6.50
2023-05-06T00:48:11.466Z,7.57
2023-05-06T00:50:40.588Z,7.03
2023-05-06T00:53:10.714Z,8.07
2023-05-06T00:55:39.147Z,7.90
2023-05-06T00:58:07.317Z,8.30
2023-05-06T01:00:35.563Z,7.47
2023-05-06T01:03:04.079Z,8.77
2023-05-06T01:05:36.767Z,8.07
2023-05-06T01:08:14.156Z,8.10
2023-05-06T01:10:50.726Z,8.00
2023-05-06T01:13:24.526Z,8.90
2023-05-06T01:15:55.729Z,9.05
2023-05-06T01:18:26.556Z,9.88
2023-05-06T01:20:55.834Z,7.50
2023-05-06T01:23:24.786Z,7.32
2023-05-06T01:25:52.473Z,6.68
2023-05-06T01:28:20.754Z,6.65
2023-05-06T01:30:56.613Z,7.07
2023-05-06T01:33:34.219Z,7.35
2023-05-06T01:36:12.195Z,6.45
2023-05-06T01:38:49.787Z,7.20
2023-05-06T01:41:19.107Z,6.72
2023-05-06T01:43:48.843Z,6.28
2023-05-06T01:46:20.155Z,6.80
2023-05-06T01:48:51.159Z,6.72
2023-05-06T01:51:22.920Z,6.18
2023-05-06T01:53:51.817Z,6.22
2023-05-06T01:56:20.511Z,6.80
2023-05-06T01:58:48.187Z,6.10
2023-05-06T02:01:16.172Z,6.10
2023-05-06T02:03:44.201Z,7.05
2023-05-06T02:06:12.473Z,5.93
2023-05-06T02:08:41.232Z,6.20
2023-05-06T02:11:14.389Z,6.35
2023-05-06T02:13:43.080Z,5.72
2023-05-06T02:16:11.670Z,5.78
2023-05-06T02:18:40.068Z,5.47
2023-05-06T02:21:10.926Z,5.55
2023-05-06T02:23:38.535Z,5.75
2023-05-06T02:26:07.077Z,5.72
2023-05-06T02:28:37.910Z,5.43
2023-05-06T02:31:06.264Z,5.70
2023-05-06T02:33:35.054Z,5.05
2023-05-06T02:36:03.026Z,5.05
2023-05-06T02:38:31.090Z,5.03
2023-05-06T02:40:58.634Z,5.13
2023-05-06T02:43:27.194Z,5.53
2023-05-06T02:45:57.288Z,5.75
2023-05-06T02:48:26.729Z,7.38
2023-05-06T02:50:56.086Z,5.93
2023-05-06T02:53:24.461Z,5.55
2023-05-06T02:55:52.186Z,5.43
2023-05-06T02:58:19.769Z,5.10
2023-05-06T03:00:47.547Z,5.57
2023-05-06T03:03:18.799Z,4.93
2023-05-06T03:05:46.586Z,5.53
2023-05-06T03:08:14.155Z,5.55
2023-05-06T03:10:44.057Z,5.50
2023-05-06T03:13:12.086Z,5.80
2023-05-06T03:15:39.885Z,5.47
2023-05-06T03:18:11.295Z,5.88
2023-05-06T03:20:41.317Z,6.43
2023-05-06T03:23:08.950Z,6.10
2023-05-06T03:25:37.130Z,6.35
2023-05-06T03:28:06.077Z,6.55
2023-05-06T03:30:35.271Z,6.15
2023-05-06T03:33:06.487Z,6.53
2023-05-06T03:35:34.912Z,7.68
2023-05-06T03:38:05.091Z,6.38
2023-05-06T03:40:40.280Z,6.50
2023-05-06T03:43:10.377Z,6.07
2023-05-06T03:45:38.096Z,6.90
2023-05-06T03:48:07.190Z,6.95
2023-05-06T03:50:40.269Z,6.32
2023-05-06T03:53:09.552Z,6.50
2023-05-06T03:55:40.696Z,6.57
2023-05-06T03:58:10.091Z,6.85
2023-05-06T04:00:37.751Z,6.60
2023-05-06T04:03:05.461Z,6.93
2023-05-06T04:05:42.058Z,7.50
2023-05-06T04:08:12.861Z,7.35
2023-05-06T04:10:47.084Z,7.38
2023-05-06T04:13:21.799Z,7.18
2023-05-06T04:15:50.621Z,6.85
2023-05-06T04:18:22.636Z,7.18
2023-05-06T04:21:00.043Z,7.53
2023-05-06T04:23:30.367Z,7.90
2023-05-06T04:25:59.468Z,7.00
2023-05-06T04:28:30.106Z,6.97
2023-05-06T04:30:57.729Z,7.93
2023-05-06T04:33:34.495Z,7.47
2023-05-06T04:36:29.964Z,9.20
2023-05-06T04:39:21.098Z,9.93
2023-05-06T04:41:50.056Z,10.10
2023-05-06T04:44:25.078Z,10.77
2023-05-06T04:46:54.672Z,11.10
2023-05-06T04:49:22.491Z,10.73
2023-05-06T04:51:51.268Z,10.43
2023-05-06T04:54:22.093Z,11.25
2023-05-06T04:56:51.769Z,10.55
2023-05-06T04:59:22.559Z,11.70
2023-05-06T05:01:50.498Z,12.65
2023-05-06T05:04:18.250Z,12.07
2023-05-06T05:06:46.914Z,13.10
2023-05-06T05:09:15.273Z,12.57
2023-05-06T05:11:46.543Z,11.85
2023-05-06T05:14:18.094Z,11.80
2023-05-06T05:16:45.911Z,14.38
2023-05-06T05:19:14.503Z,13.45
2023-05-06T05:21:44.087Z,13.98
2023-05-06T05:24:13.468Z,15.60
2023-05-06T05:26:41.382Z,14.07
2023-05-06T05:29:11.151Z,15.70
2023-05-06T05:31:41.216Z,14.07
2023-05-06T05:34:11.245Z,13.23
2023-05-06T05:36:38.860Z,13.90
2023-05-06T05:39:11.093Z,15.07
2023-05-06T05:42:08.985Z,14.85
2023-05-06T05:44:42.108Z,14.98
2023-05-06T05:49:40.716Z,15.15
2023-05-06T05:52:09.732Z,16.92
2023-05-06T05:54:44.091Z,15.98
2023-05-06T05:57:12.487Z,17.17
2023-05-06T05:59:42.093Z,17.02
2023-05-06T06:02:09.794Z,18.73
2023-05-06T06:05:03.396Z,21.42
2023-05-06T06:07:35.634Z,19.33
2023-05-06T06:10:04.335Z,20.23
2023-05-06T06:12:32.039Z,20.35
2023-05-06T06:15:07.147Z,19.77
2023-05-06T06:17:36.111Z,21.08
2023-05-06T06:20:09.020Z,20.77
2023-05-06T06:22:39.079Z,21.42
2023-05-06T06:25:07.878Z,19.10
2023-05-06T06:27:36.381Z,20.70
2023-05-06T06:30:06.293Z,23.10
2023-05-06T06:32:34.197Z,19.88
2023-05-06T06:35:02.067Z,21.67
2023-05-06T06:37:29.844Z,21.77
2023-05-06T06:39:57.631Z,20.30
2023-05-06T06:42:25.936Z,20.80
2023-05-06T06:45:09.795Z,23.58
2023-05-06T06:48:04.240Z,23.23
2023-05-06T06:50:35.537Z,23.02
2023-05-06T06:53:06.239Z,22.13
2023-05-06T06:55:34.245Z,22.60
2023-05-06T06:58:01.847Z,21.52
2023-05-06T07:00:30.814Z,22.02
2023-05-06T07:02:58.458Z,24.70
2023-05-06T07:05:28.093Z,22.13
2023-05-06T07:07:56.282Z,29.13
2023-05-06T07:10:24.425Z,25.83
2023-05-06T07:12:52.079Z,27.30
2023-05-06T07:15:20.007Z,25.17
2023-05-06T07:17:48.948Z,25.20
2023-05-06T07:20:17.161Z,25.70
2023-05-06T07:22:45.607Z,30.23
2023-05-06T07:25:17.095Z,28.20
2023-05-06T07:27:44.713Z,25.58
2023-05-06T07:30:12.836Z,24.63
2023-05-06T07:32:41.538Z,26.27
2023-05-06T07:35:11.477Z,26.98
2023-05-06T07:37:39.509Z,25.15
2023-05-06T07:40:09.193Z,27.90
2023-05-06T07:42:37.075Z,26.67
2023-05-06T07:45:05.652Z,28.05
2023-05-06T07:47:35.163Z,30.42
2023-05-06T07:50:04.881Z,28.17
2023-05-06T07:52:34.370Z,27.48
2023-05-06T07:55:01.942Z,26.65
2023-05-06T07:57:30.102Z,27.88
2023-05-06T07:59:58.397Z,30.92
2023-05-06T08:02:27.281Z,27.27
2023-05-06T08:04:56.254Z,27.95
2023-05-06T08:07:24.124Z,26.73
2023-05-06T08:09:54.228Z,28.75
2023-05-06T08:12:22.495Z,28.50
2023-05-06T08:14:51.731Z,26.83
2023-05-06T08:17:20.349Z,24.10
2023-05-06T08:19:49.615Z,24.40
2023-05-06T08:22:17.445Z,22.15
2023-05-06T08:24:46.040Z,22.13
2023-05-06T08:27:19.207Z,22.73
2023-05-06T08:29:47.092Z,23.33
2023-05-06T08:32:14.697Z,22.20
2023-05-06T08:34:42.266Z,23.33
2023-05-06T08:37:10.851Z,24.15
2023-05-06T08:40:05.203Z,23.80
2023-05-06T08:42:37.341Z,24.10
2023-05-06T08:45:07.122Z,22.23
2023-05-06T08:47:35.297Z,23.77
2023-05-06T08:50:03.344Z,24.45
2023-05-06T08:52:32.420Z,21.52
2023-05-06T08:55:05.086Z,23.30
2023-05-06T08:57:35.224Z,24.88
2023-05-06T09:00:07.138Z,24.00
2023-05-06T09:05:05.685Z,24.45
2023-05-06T09:07:34.189Z,21.17
2023-05-06T09:10:06.839Z,22.25
2023-05-06T09:12:42.145Z,22.42
2023-05-06T09:15:11.512Z,22.30
2023-05-06T09:17:40.189Z,22.80
2023-05-06T09:20:12.491Z,21.92
2023-05-06T09:22:41.206Z,23.30
2023-05-06T09:25:12.350Z,23.50
2023-05-06T09:27:42.112Z,20.80
2023-05-06T09:30:13.112Z,21.02
2023-05-06T09:32:41.684Z,20.63
2023-05-06T09:35:11.035Z,25.00
2023-05-06T09:37:41.102Z,25.42
2023-05-06T09:40:11.061Z,24.35
2023-05-06T09:42:42.114Z,24.08
2023-05-06T09:45:11.273Z,25.50
2023-05-06T09:47:40.041Z,25.45
2023-05-06T09:50:12.106Z,26.48
2023-05-06T09:52:40.106Z,26.05
2023-05-06T09:55:09.142Z,27.33
2023-05-06T09:57:43.109Z,26.87
2023-05-06T10:00:13.112Z,22.95
2023-05-06T10:02:42.318Z,25.65
2023-05-06T10:05:12.582Z,28.58
2023-05-06T10:07:45.204Z,30.23
2023-05-06T10:10:14.249Z,26.63
2023-05-06T10:12:41.905Z,23.92
2023-05-06T10:15:12.095Z,26.23
2023-05-06T10:17:43.238Z,22.77
2023-05-06T10:20:14.911Z,23.05
2023-05-06T10:22:53.243Z,21.67
2023-05-06T10:25:28.485Z,21.45
2023-05-06T10:27:56.090Z,20.52
2023-05-06T10:30:27.499Z,23.88
2023-05-06T10:32:57.926Z,22.88
2023-05-06T10:35:36.205Z,21.73
2023-05-06T10:38:06.139Z,18.85
2023-05-06T10:40:34.194Z,22.58
2023-05-06T10:43:27.014Z,23.85
2023-05-06T10:46:04.382Z,22.92
2023-05-06T10:48:34.324Z,24.67
2023-05-06T10:51:24.226Z,24.52
2023-05-06T10:54:03.724Z,25.05
2023-05-06T10:56:34.104Z,29.70
2023-05-06T10:59:08.742Z,25.05
2023-05-06T11:01:39.311Z,28.15
2023-05-06T11:04:09.461Z,27.17
2023-05-06T11:06:41.038Z,22.35
2023-05-06T11:09:17.315Z,23.42
2023-05-06T11:12:00.292Z,21.60
2023-05-06T11:14:29.979Z,27.40
2023-05-06T11:17:01.379Z,25.95
2023-05-06T11:19:30.933Z,28.23
2023-05-06T11:22:00.295Z,27.83
2023-05-06T11:24:29.984Z,27.30
2023-05-06T11:26:59.207Z,25.40
2023-05-06T11:29:27.840Z,23.98
2023-05-06T11:31:55.753Z,19.60
2023-05-06T11:34:27.185Z,21.23
2023-05-06T11:36:59.161Z,15.50
2023-05-06T11:39:30.727Z,19.17
2023-05-06T11:42:01.116Z,17.20
2023-05-06T11:44:31.219Z,17.10
2023-05-06T11:47:05.134Z,21.33
2023-05-06T11:49:38.401Z,21.05
2023-05-06T11:52:06.862Z,19.40
2023-05-06T11:54:37.156Z,14.93
2023-05-06T11:57:06.723Z,17.92
2023-05-06T11:59:38.138Z,14.57
2023-05-06T12:02:07.947Z,15.27
2023-05-06T12:04:41.404Z,16.85
2023-05-06T12:07:12.144Z,17.40
2023-05-06T12:09:43.206Z,15.85
2023-05-06T12:12:13.299Z,12.00
2023-05-06T12:14:47.122Z,12.88
2023-05-06T12:17:16.468Z,15.52
2023-05-06T12:19:47.063Z,15.40
2023-05-06T12:22:17.871Z,16.98
2023-05-06T12:24:45.747Z,14.13
2023-05-06T12:27:13.362Z,12.73
2023-05-06T12:29:41.676Z,15.73
2023-05-06T12:32:10.884Z,17.00
2023-05-06T12:34:41.221Z,14.43
2023-05-06T12:37:12.132Z,15.13
2023-05-06T12:39:41.420Z,14.35
2023-05-06T12:42:09.041Z,12.23
2023-05-06T12:44:39.256Z,12.07
2023-05-06T12:47:09.178Z,11.45
2023-05-06T12:49:51.634Z,13.70
2023-05-06T12:52:21.888Z,12.50
2023-05-06T12:54:51.705Z,11.90
2023-05-06T12:57:20.129Z,12.82
2023-05-06T12:59:51.247Z,11.80
2023-05-06T13:02:19.093Z,14.88
2023-05-06T13:04:47.314Z,12.35
2023-05-06T13:07:16.132Z,13.02
2023-05-06T13:09:45.368Z,12.30
2023-05-06T13:12:13.645Z,13.18
2023-05-06T13:14:41.407Z,10.30
2023-05-06T13:17:09.298Z,10.80
2023-05-06T13:19:37.310Z,10.80
2023-05-06T13:22:04.940Z,11.73
2023-05-06T13:24:33.238Z,11.27
2023-05-06T13:27:03.275Z,12.63
2023-05-06T13:29:31.852Z,11.80
2023-05-06T13:32:02.146Z,10.23
2023-05-06T13:34:32.136Z,10.95
2023-05-06T13:37:00.298Z,11.80
2023-05-06T13:39:27.867Z,12.38
2023-05-06T13:41:55.585Z,11.43
2023-05-06T13:44:25.472Z,10.75
2023-05-06T13:46:55.152Z,10.68
2023-05-06T13:49:23.006Z,13.23
2023-05-06T13:51:50.851Z,11.13
2023-05-06T13:54:18.429Z,10.23
2023-05-06T13:56:46.270Z,8.55
2023-05-06T13:59:14.008Z,10.25
2023-05-06T14:01:43.561Z,8.65
2023-05-06T14:04:11.195Z,8.52
2023-05-06T14:06:42.674Z,8.98
2023-05-06T14:09:11.702Z,9.15
2023-05-06T14:11:39.793Z,10.00
2023-05-06T14:14:07.695Z,9.00
2023-05-06T14:16:35.432Z,8.05
2023-05-06T14:19:05.636Z,8.95
2023-05-06T14:21:34.527Z,7.65
2023-05-06T14:24:02.199Z,7.80
2023-05-06T14:26:30.167Z,8.25
2023-05-06T14:28:58.639Z,7.28
2023-05-06T14:31:26.645Z,8.13
2023-05-06T14:33:54.859Z,8.85
2023-05-06T14:36:24.239Z,8.80
2023-05-06T14:38:51.831Z,8.30
2023-05-06T14:41:21.255Z,7.07
2023-05-06T14:43:49.130Z,9.57
2023-05-06T14:46:17.630Z,8.65
2023-05-06T14:48:46.169Z,7.80
2023-05-06T14:51:37.946Z,9.88
2023-05-06T14:54:07.114Z,7.70
2023-05-06T14:56:34.747Z,6.55
2023-05-06T14:59:03.940Z,6.35
2023-05-06T15:01:33.449Z,6.60
2023-05-06T15:04:01.259Z,6.30
2023-05-06T15:06:29.559Z,5.70
2023-05-06T15:08:58.124Z,8.63
2023-05-06T15:11:27.139Z,8.55
2023-05-06T15:13:58.594Z,8.40
2023-05-06T15:16:28.222Z,8.70
2023-05-06T15:18:57.244Z,8.88
2023-05-06T15:21:24.866Z,7.72
2023-05-06T15:23:52.443Z,7.85
2023-05-06T15:26:20.042Z,7.53
2023-05-06T15:28:48.952Z,6.85
2023-05-06T15:31:16.625Z,7.57
2023-05-06T15:33:44.827Z,9.95
2023-05-06T15:36:12.671Z,7.25
2023-05-06T15:38:59.873Z,5.85
2023-05-06T15:41:30.303Z,7.45
2023-05-06T15:44:00.770Z,7.45
2023-05-06T15:46:30.211Z,8.02
2023-05-06T15:49:17.852Z,7.15
2023-05-06T15:51:46.187Z,7.05
2023-05-06T15:54:13.775Z,7.10
2023-05-06T15:56:41.804Z,9.98
2023-05-06T15:59:12.074Z,7.20
2023-05-06T16:04:12.696Z,6.25
2023-05-06T16:06:40.404Z,7.43
2023-05-06T16:09:09.173Z,6.00
2023-05-06T16:11:36.729Z,6.82
2023-05-06T16:14:05.035Z,7.07
2023-05-06T16:16:34.384Z,6.20
2023-05-06T16:19:02.004Z,7.55
2023-05-06T16:21:29.736Z,7.57
2023-05-06T16:23:59.236Z,5.97
2023-05-06T16:26:26.795Z,6.05
2023-05-06T16:28:54.649Z,6.07
2023-05-06T16:31:22.345Z,6.55
2023-05-06T16:33:51.311Z,6.43
2023-05-06T16:36:19.795Z,7.40
2023-05-06T16:38:47.668Z,5.97
2023-05-06T16:41:15.362Z,6.65
2023-05-06T16:43:42.934Z,5.07
2023-05-06T16:46:10.640Z,4.85
2023-05-06T16:48:39.383Z,7.43
2023-05-06T16:51:13.596Z,6.22
2023-05-06T16:53:43.171Z,6.05
2023-05-06T16:56:10.819Z,5.95
2023-05-06T16:58:38.597Z,6.40
2023-05-06T17:01:07.929Z,4.55
2023-05-06T17:03:37.642Z,5.28
2023-05-06T17:06:06.246Z,5.50
2023-05-06T17:08:36.920Z,4.85
2023-05-06T17:11:07.077Z,4.47
2023-05-06T17:13:34.689Z,5.47
2023-05-06T17:16:02.486Z,4.65
2023-05-06T17:18:30.726Z,4.90
2023-05-06T17:20:58.444Z,3.90
2023-05-06T17:23:27.258Z,4.28
2023-05-06T17:25:57.901Z,4.32
2023-05-06T17:28:25.807Z,4.53
2023-05-06T17:30:53.655Z,4.75
2023-05-06T17:33:21.756Z,5.22
2023-05-06T17:35:49.302Z,5.45
2023-05-06T17:38:17.690Z,4.22
2023-05-06T17:40:45.283Z,4.78
2023-05-06T17:43:14.215Z,4.40
2023-05-06T17:45:42.207Z,5.30
2023-05-06T17:48:11.353Z,4.20
2023-05-06T17:50:39.408Z,4.40
2023-05-06T17:53:06.987Z,3.97
2023-05-06T17:55:34.614Z,5.00
2023-05-06T17:58:02.365Z,5.20
2023-05-06T18:00:31.393Z,4.65
2023-05-06T18:03:00.331Z,4.78
2023-05-06T18:05:28.103Z,4.45
2023-05-06T18:07:55.838Z,4.32
2023-05-06T18:10:23.427Z,4.30
2023-05-06T18:12:51.144Z,5.85
2023-05-06T18:15:18.903Z,6.15
2023-05-06T18:17:47.820Z,3.90
2023-05-06T18:20:16.049Z,4.85
2023-05-06T18:22:44.258Z,3.75
2023-05-06T18:25:12.197Z,5.15
2023-05-06T18:27:40.158Z,4.65
2023-05-06T18:30:10.172Z,3.67
2023-05-06T18:32:38.303Z,3.03
2023-05-06T18:35:08.169Z,3.97
2023-05-06T18:37:36.792Z,3.45
2023-05-06T18:40:05.867Z,3.33
2023-05-06T18:42:34.037Z,4.03
2023-05-06T18:45:04.520Z,3.92
2023-05-06T18:47:32.519Z,3.08
2023-05-06T18:50:00.693Z,3.80
2023-05-06T18:52:30.045Z,3.17
2023-05-06T18:54:57.634Z,3.20
2023-05-06T18:57:27.001Z,4.25
2023-05-06T18:59:54.689Z,3.58
2023-05-06T19:02:22.442Z,3.38
2023-05-06T19:04:51.047Z,2.80
2023-05-06T19:07:20.293Z,3.95
2023-05-06T19:09:49.345Z,3.58
2023-05-06T19:12:18.245Z,3.90
2023-05-06T19:14:47.198Z,4.90
2023-05-06T19:17:15.779Z,4.78
2023-05-06T19:19:45.636Z,4.80
2023-05-06T19:22:15.325Z,3.88
2023-05-06T19:24:42.989Z,4.20
2023-05-06T19:27:11.923Z,3.83
2023-05-06T19:29:40.256Z,4.47
2023-05-06T19:32:09.422Z,3.50
2023-05-06T19:34:37.002Z,4.10
2023-05-06T19:37:04.621Z,4.38
2023-05-06T19:39:32.729Z,3.45
2023-05-06T19:42:00.307Z,4.10
2023-05-06T19:44:29.281Z,4.38
2023-05-06T19:46:56.853Z,4.13
2023-05-06T19:49:24.452Z,5.70
2023-05-06T19:51:52.113Z,4.80
2023-05-06T19:54:19.784Z,3.72
2023-05-06T19:56:49.633Z,3.80
2023-05-06T19:59:19.209Z,3.90
2023-05-06T20:01:48.196Z,4.35
2023-05-06T20:04:16.104Z,4.47
2023-05-06T20:06:43.865Z,5.22
2023-05-06T20:09:12.177Z,5.65
2023-05-06T20:11:39.829Z,4.88
2023-05-06T20:14:07.513Z,5.65
2023-05-06T20:16:36.021Z,4.50
2023-05-06T20:19:05.234Z,4.25
2023-05-06T20:21:33.725Z,5.18
2023-05-06T20:24:01.405Z,6.88
2023-05-06T20:26:29.006Z,5.03
2023-05-06T20:28:56.555Z,5.50
2023-05-06T20:31:24.757Z,4.88
2023-05-06T20:33:52.534Z,4.47
2023-05-06T20:36:22.336Z,5.82
2023-05-06T20:38:51.357Z,5.97
2023-05-06T20:41:19.789Z,4.78
2023-05-06T20:43:47.381Z,5.45
2023-05-06T20:46:15.195Z,4.82
2023-05-06T20:48:44.180Z,5.13
2023-05-06T20:51:12.106Z,5.65
2023-05-06T20:53:41.831Z,5.32
2023-05-06T20:56:17.429Z,6.32
2023-05-06T20:58:45.710Z,5.15
2023-05-06T21:01:14.312Z,5.70
2023-05-06T21:03:42.898Z,6.28
2023-05-06T21:06:11.106Z,4.55
2023-05-06T21:08:38.887Z,5.65
2023-05-06T21:11:08.224Z,5.88
2023-05-06T21:13:37.093Z,5.38
2023-05-06T21:16:05.281Z,7.00
2023-05-06T21:18:33.075Z,5.68
2023-05-06T21:21:01.604Z,4.85
2023-05-06T21:23:29.171Z,7.63
2023-05-06T21:25:59.234Z,5.65
2023-05-06T21:28:28.175Z,6.90
2023-05-06T21:30:56.043Z,5.90
2023-05-06T21:33:24.196Z,5.70
2023-05-06T21:35:51.812Z,5.90
2023-05-06T21:38:19.418Z,6.18
2023-05-06T21:40:48.932Z,5.60
2023-05-06T21:43:17.843Z,6.07
2023-05-06T21:45:47.197Z,5.30
2023-05-06T21:48:15.210Z,8.05
2023-05-06T21:50:42.850Z,5.15
2023-05-06T21:53:11.519Z,5.78
2023-05-06T21:55:39.179Z,6.65
2023-05-06T21:58:07.040Z,6.72
2023-05-06T22:00:34.745Z,5.50
2023-05-06T22:03:04.062Z,5.68
2023-05-06T22:05:31.866Z,6.15
2023-05-06T22:07:59.455Z,6.70
2023-05-06T22:10:27.088Z,6.03
2023-05-06T22:12:54.688Z,6.28
2023-05-06T22:15:22.323Z,6.65
2023-05-06T22:17:50.258Z,7.18
2023-05-06T22:20:21.351Z,5.60
2023-05-06T22:22:51.481Z,6.00
2023-05-06T22:25:20.955Z,6.57
2023-05-06T22:27:48.995Z,6.00
2023-05-06T22:30:17.064Z,5.55
2023-05-06T22:32:44.703Z,6.82
2023-05-06T22:35:12.873Z,6.15
2023-05-06T22:37:41.976Z,6.53
2023-05-06T22:40:11.095Z,7.72
2023-05-06T22:42:39.031Z,6.78
2023-05-06T22:45:09.495Z,6.43
2023-05-06T22:47:37.264Z,6.78
2023-05-06T22:50:06.628Z,7.00
2023-05-06T22:52:34.304Z,6.07
2023-05-06T22:55:04.383Z,6.65
2023-05-06T22:57:32.102Z,6.30
2023-05-06T23:00:01.602Z,7.65
2023-05-06T23:02:29.435Z,6.80
2023-05-06T23:04:57.517Z,7.20
2023-05-06T23:07:25.339Z,8.80
2023-05-06T23:09:52.944Z,8.02
2023-05-06T23:12:22.236Z,7.50
2023-05-06T23:14:50.797Z,7.72
2023-05-06T23:17:18.359Z,9.02
2023-05-06T23:19:46.098Z,7.45
2023-05-06T23:22:13.699Z,7.38
2023-05-06T23:24:42.265Z,7.80
2023-05-06T23:27:10.302Z,7.45
2023-05-06T23:29:39.343Z,7.97
2023-05-06T23:32:07.927Z,7.50
2023-05-06T23:34:35.717Z,9.80
2023-05-06T23:37:03.632Z,7.43
2023-05-06T23:39:31.208Z,9.00
2023-05-06T23:42:01.221Z,6.30
2023-05-06T23:44:29.552Z,6.57
2023-05-06T23:46:58.511Z,6.18
2023-05-06T23:49:26.324Z,7.00
2023-05-06T23:51:54.216Z,7.47
2023-05-06T23:54:22.370Z,6.03
2023-05-06T23:56:50.567Z,6.75
2023-05-06T23:59:18.304Z,7.15
